createdAt,value
2019-03-10T00:04:28.851Z,6.42
2019-03-10T00:09:34.067Z,7.63
2019-03-10T00:14:39.558Z,7.08
2019-03-10T00:19:45.761Z,7.25
2019-03-10T00:24:51.060Z,6.22
2019-03-10T00:29:56.628Z,6.30
2019-03-10T00:35:01.867Z,5.70
2019-03-10T00:40:49.890Z,5.87
2019-03-10T00:46:38.605Z,5.80
2019-03-10T00:52:07.277Z,5.70
2019-03-10T00:57:12.527Z,5.85
2019-03-10T01:02:18.027Z,6.13
2019-03-10T01:07:23.338Z,6.58
2019-03-10T01:12:28.528Z,5.93
2019-03-10T01:17:35.091Z,5.62
2019-03-10T01:22:40.571Z,5.83
2019-03-10T01:27:45.801Z,6.00
2019-03-10T01:33:37.244Z,5.10
2019-03-10T01:38:42.449Z,5.20
2019-03-10T01:43:47.688Z,5.58
2019-03-10T01:48:52.959Z,5.03
2019-03-10T01:53:58.190Z,5.90
2019-03-10T01:59:03.487Z,5.65
2019-03-10T02:04:08.711Z,5.53
2019-03-10T02:09:15.292Z,5.80
2019-03-10T02:14:20.663Z,6.35
2019-03-10T02:19:25.864Z,5.47
2019-03-10T02:24:31.117Z,5.40
2019-03-10T02:29:37.043Z,5.22
2019-03-10T02:34:43.111Z,5.60
2019-03-10T02:39:48.976Z,4.80
2019-03-10T02:44:54.253Z,5.03
2019-03-10T02:49:59.497Z,5.65
2019-03-10T02:55:04.889Z,5.60
2019-03-10T03:00:11.549Z,5.62
2019-03-10T03:05:16.921Z,5.07
2019-03-10T03:10:22.250Z,4.75
2019-03-10T03:15:30.182Z,4.77
2019-03-10T03:20:37.568Z,5.15
2019-03-10T03:30:50.953Z,5.58
2019-03-10T03:35:59.593Z,6.28
2019-03-10T03:41:07.825Z,6.25
2019-03-10T03:46:13.569Z,5.50
2019-03-10T03:51:18.935Z,4.72
2019-03-10T03:56:24.543Z,5.23
2019-03-10T04:01:33.360Z,5.30
2019-03-10T04:06:38.799Z,5.60
2019-03-10T04:11:44.564Z,5.47
2019-03-10T04:16:50.320Z,5.65
2019-03-10T04:21:57.033Z,5.63
2019-03-10T04:27:02.334Z,5.17
2019-03-10T04:32:08.358Z,5.25
2019-03-10T04:37:13.590Z,5.20
2019-03-10T04:42:18.884Z,5.10
2019-03-10T04:47:24.485Z,5.10
2019-03-10T04:52:29.681Z,7.25
2019-03-10T04:57:35.099Z,6.43
2019-03-10T05:02:40.293Z,5.40
2019-03-10T05:07:45.916Z,5.53
2019-03-10T05:12:51.129Z,5.70
2019-03-10T05:17:56.321Z,5.67
2019-03-10T05:23:27.264Z,5.30
2019-03-10T05:28:33.243Z,5.37
2019-03-10T05:33:38.470Z,5.40
2019-03-10T05:38:43.666Z,5.70
2019-03-10T05:43:48.959Z,5.78
2019-03-10T05:48:54.180Z,5.43
2019-03-10T05:53:59.369Z,6.05
2019-03-10T05:59:04.653Z,6.13
2019-03-10T06:04:09.935Z,5.80
2019-03-10T06:09:15.155Z,6.03
2019-03-10T06:14:20.547Z,5.92
2019-03-10T06:19:25.746Z,6.33
2019-03-10T06:24:30.948Z,5.53
2019-03-10T06:29:36.233Z,6.28
2019-03-10T06:34:41.757Z,5.63
2019-03-10T06:39:47.065Z,5.42
2019-03-10T06:44:52.252Z,5.03
2019-03-10T06:49:57.634Z,5.47
2019-03-10T06:55:03.897Z,5.03
2019-03-10T07:00:10.922Z,6.83
2019-03-10T07:05:16.174Z,5.73
2019-03-10T07:10:21.378Z,5.25
2019-03-10T07:15:26.670Z,7.10
2019-03-10T07:20:32.157Z,11.57
2019-03-10T07:25:38.411Z,7.03
2019-03-10T07:30:48.691Z,5.33
2019-03-10T07:36:06.609Z,5.17
2019-03-10T07:41:18.698Z,6.37
2019-03-10T07:46:41.782Z,22.77
2019-03-10T07:52:05.437Z,4.78
2019-03-10T07:57:29.756Z,8.10
2019-03-10T08:03:00.075Z,8.70
2019-03-10T08:08:25.299Z,2.30
2019-03-10T08:13:55.441Z,1.50
2019-03-10T08:19:08.988Z,1.30
2019-03-10T08:24:20.385Z,1.23
2019-03-10T08:29:44.801Z,1.40
2019-03-10T08:35:08.637Z,1.30
2019-03-10T08:40:24.900Z,1.20
2019-03-10T08:45:47.805Z,1.10
2019-03-10T08:51:04.026Z,1.05
2019-03-10T08:56:27.532Z,1.00
2019-03-10T09:01:50.592Z,0.90
2019-03-10T09:07:11.243Z,1.00
2019-03-10T09:12:21.726Z,0.80
2019-03-10T09:17:45.082Z,0.70
2019-03-10T09:22:57.935Z,0.95
2019-03-10T09:28:28.293Z,0.80
2019-03-10T09:34:07.514Z,1.07
2019-03-10T09:39:43.973Z,0.70
2019-03-10T09:45:20.708Z,0.80
2019-03-10T09:50:50.662Z,1.00
2019-03-10T09:56:10.112Z,1.20
2019-03-10T10:01:21.629Z,1.40
2019-03-10T10:06:46.039Z,1.40
2019-03-10T10:12:13.724Z,1.07
2019-03-10T10:17:26.973Z,1.33
2019-03-10T10:22:41.545Z,0.98
2019-03-10T10:28:05.768Z,1.35
2019-03-10T10:33:33.205Z,1.05
2019-03-10T10:39:03.454Z,2.30
2019-03-10T10:44:17.302Z,1.40
2019-03-10T10:49:50.629Z,1.50
2019-03-10T10:55:01.029Z,1.40
2019-03-10T11:00:21.792Z,1.85
2019-03-10T11:05:44.536Z,2.15
2019-03-10T11:11:08.689Z,2.10
2019-03-10T11:16:20.086Z,2.20
2019-03-10T11:21:31.582Z,2.00
2019-03-10T11:26:43.696Z,2.07
2019-03-10T11:31:59.608Z,2.27
2019-03-10T11:37:26.927Z,2.00
2019-03-10T11:42:51.130Z,1.90
2019-03-10T11:48:21.221Z,2.47
2019-03-10T11:53:57.751Z,2.30
2019-03-10T11:59:09.786Z,2.22
2019-03-10T12:04:29.612Z,2.08
2019-03-10T12:09:35.806Z,2.37
2019-03-10T12:14:41.143Z,2.40
2019-03-10T12:19:46.447Z,2.58
2019-03-10T12:24:51.712Z,2.42
2019-03-10T12:29:57.261Z,2.23
2019-03-10T12:35:02.675Z,2.07
2019-03-10T12:40:08.300Z,2.53
2019-03-10T12:45:13.706Z,2.70
2019-03-10T12:50:19.158Z,2.60
2019-03-10T12:55:25.792Z,2.77
2019-03-10T13:00:30.981Z,2.70
2019-03-10T13:05:36.317Z,3.60
2019-03-10T13:10:41.727Z,3.73
2019-03-10T13:15:46.972Z,4.07
2019-03-10T13:20:52.695Z,3.90
2019-03-10T13:25:57.905Z,4.20
2019-03-10T13:31:03.472Z,3.95
2019-03-10T13:36:09.822Z,3.63
2019-03-10T13:41:15.459Z,3.60
2019-03-10T13:46:20.666Z,3.08
2019-03-10T13:51:25.985Z,3.00
2019-03-10T13:56:31.334Z,2.60
2019-03-10T14:01:36.586Z,3.22
2019-03-10T14:06:42.233Z,3.97
2019-03-10T14:11:47.553Z,4.97
2019-03-10T14:16:52.983Z,3.12
2019-03-10T14:21:58.217Z,3.93
2019-03-10T14:27:03.433Z,2.67
2019-03-10T14:32:08.786Z,2.90
2019-03-10T14:37:14.290Z,2.77
2019-03-10T14:42:19.630Z,2.40
2019-03-10T14:47:25.914Z,2.17
2019-03-10T14:52:31.925Z,2.40
2019-03-10T14:57:37.392Z,2.20
2019-03-10T15:02:42.982Z,2.37
2019-03-10T15:07:48.316Z,2.40
2019-03-10T15:12:53.682Z,1.70
2019-03-10T15:17:59.309Z,1.53
2019-03-10T15:23:04.614Z,1.40
2019-03-10T15:28:09.855Z,1.40
2019-03-10T15:33:15.257Z,1.30
2019-03-10T15:38:20.490Z,1.00
2019-03-10T15:43:25.844Z,1.23
2019-03-10T15:48:31.325Z,1.37
2019-03-10T15:53:36.724Z,1.50
2019-03-10T15:58:42.053Z,1.22
2019-03-10T16:03:47.795Z,1.33
2019-03-10T16:08:53.081Z,0.80
2019-03-10T16:13:58.364Z,0.90
2019-03-10T16:19:03.747Z,1.30
2019-03-10T16:24:09.227Z,1.45
2019-03-10T16:29:14.478Z,1.10
2019-03-10T16:34:19.668Z,1.00
2019-03-10T16:39:24.862Z,1.20
2019-03-10T16:44:30.036Z,1.37
2019-03-10T16:49:35.473Z,1.80
2019-03-10T16:54:40.960Z,1.27
2019-03-10T16:59:46.334Z,1.40
2019-03-10T17:04:51.755Z,0.83
2019-03-10T17:09:57.221Z,1.15
2019-03-10T17:15:02.875Z,0.80
2019-03-10T17:20:09.733Z,0.80
2019-03-10T17:25:15.572Z,0.90
2019-03-10T17:30:21.657Z,0.85
2019-03-10T17:35:26.860Z,0.90
2019-03-10T17:40:32.089Z,1.10
2019-03-10T17:45:40.291Z,1.00
2019-03-10T17:50:45.632Z,0.70
2019-03-10T17:55:50.935Z,1.10
2019-03-10T18:00:56.178Z,1.15
2019-03-10T18:06:01.855Z,1.22
2019-03-10T18:11:07.040Z,1.30
2019-03-10T18:16:12.685Z,1.20
2019-03-10T18:21:18.423Z,0.80
2019-03-10T18:26:24.287Z,0.70
2019-03-10T18:31:29.696Z,0.88
2019-03-10T18:36:35.157Z,1.50
2019-03-10T18:41:40.546Z,1.00
2019-03-10T18:46:45.867Z,1.10
2019-03-10T18:51:53.446Z,1.20
2019-03-10T18:56:59.306Z,2.05
2019-03-10T19:02:04.672Z,1.45
2019-03-10T19:07:09.988Z,1.20
2019-03-10T19:12:15.660Z,1.37
2019-03-10T19:17:20.911Z,1.52
2019-03-10T19:22:26.344Z,1.47
2019-03-10T19:27:31.904Z,1.60
2019-03-10T19:32:37.288Z,1.45
2019-03-10T19:37:45.499Z,1.57
2019-03-10T19:42:50.953Z,1.62
2019-03-10T19:47:56.192Z,1.37
2019-03-10T19:53:01.499Z,2.35
2019-03-10T19:58:06.896Z,1.70
2019-03-10T20:03:28.888Z,1.60
2019-03-10T20:08:35.152Z,1.20
2019-03-10T20:13:40.734Z,1.50
2019-03-10T20:18:45.948Z,1.70
2019-03-10T20:23:51.351Z,1.63
2019-03-10T20:28:56.563Z,2.05
2019-03-10T20:34:01.755Z,2.27
2019-03-10T20:39:08.732Z,1.50
2019-03-10T20:44:15.108Z,1.20
2019-03-10T20:49:20.458Z,1.90
2019-03-10T20:54:25.642Z,1.55
2019-03-10T20:59:31.184Z,1.90
2019-03-10T21:04:39.586Z,1.25
2019-03-10T21:09:46.127Z,1.07
2019-03-10T21:14:51.343Z,1.40
2019-03-10T21:19:56.540Z,1.40
2019-03-10T21:25:01.809Z,1.27
2019-03-10T21:30:11.419Z,1.40
2019-03-10T21:35:18.140Z,1.40
2019-03-10T21:40:24.590Z,1.30
2019-03-10T21:45:30.663Z,1.07
2019-03-10T21:50:35.898Z,1.40
2019-03-10T21:55:41.277Z,1.70
2019-03-10T22:00:46.662Z,1.80
2019-03-10T22:05:51.921Z,1.40
2019-03-10T22:10:57.513Z,1.60
2019-03-10T22:16:02.712Z,1.10
2019-03-10T22:21:08.312Z,1.12
2019-03-10T22:26:14.507Z,1.27
2019-03-10T22:31:20.115Z,1.20
2019-03-10T22:36:25.428Z,1.40
2019-03-10T22:41:30.656Z,1.70
2019-03-10T22:46:37.302Z,1.50
2019-03-10T22:51:42.614Z,1.33
2019-03-10T22:56:47.879Z,1.60
2019-03-10T23:01:53.595Z,1.92
2019-03-10T23:06:59.183Z,1.72
2019-03-10T23:12:04.803Z,2.42
2019-03-10T23:17:10.108Z,2.35
2019-03-10T23:22:15.615Z,2.40
2019-03-10T23:27:21.133Z,2.52
2019-03-10T23:32:26.383Z,2.40
2019-03-10T23:37:31.583Z,2.33
2019-03-10T23:42:37.209Z,2.37
2019-03-10T23:47:42.603Z,2.80
2019-03-10T23:52:47.808Z,2.80
2019-03-10T23:57:53.058Z,2.87
